createdAt,value
2018-06-23T00:00:37.590Z,19.70
2018-06-23T00:03:07.764Z,26.07
2018-06-23T00:05:36.619Z,25.93
2018-06-23T00:08:05.621Z,15.13
2018-06-23T00:10:34.259Z,23.40
2018-06-23T00:13:03.121Z,19.63
2018-06-23T00:15:32.232Z,18.90
2018-06-23T00:18:01.143Z,24.00
2018-06-23T00:20:29.997Z,20.53
2018-06-23T00:23:00.697Z,13.80
2018-06-23T00:25:48.688Z,21.13
2018-06-23T00:28:29.878Z,23.97
2018-06-23T00:30:58.847Z,27.87
2018-06-23T00:33:28.573Z,16.73
2018-06-23T00:35:57.841Z,26.00
2018-06-23T00:38:26.735Z,24.40
2018-06-23T00:40:55.622Z,19.87
2018-06-23T00:46:42.266Z,26.03
2018-06-23T00:49:24.976Z,20.43
2018-06-23T00:51:53.861Z,23.83
2018-06-23T00:54:22.770Z,26.93
2018-06-23T00:56:51.666Z,22.63
2018-06-23T00:59:31.915Z,23.30
2018-06-23T01:02:00.812Z,22.77
2018-06-23T01:04:29.769Z,34.60
2018-06-23T01:06:58.770Z,26.33
2018-06-23T01:09:27.657Z,25.57
2018-06-23T01:11:56.564Z,20.03
2018-06-23T01:14:25.541Z,24.03
2018-06-23T01:16:54.456Z,27.20
2018-06-23T01:22:34.182Z,11.77
2018-06-23T01:25:04.061Z,21.50
2018-06-23T01:27:33.256Z,20.33
2018-06-23T01:30:01.900Z,25.80
2018-06-23T01:32:30.680Z,23.50
2018-06-23T01:34:59.547Z,24.77
2018-06-23T01:37:34.576Z,17.40
2018-06-23T01:40:16.636Z,18.90
2018-06-23T01:42:46.515Z,25.07
2018-06-23T01:45:15.116Z,23.07
2018-06-23T01:47:43.635Z,27.40
2018-06-23T01:50:12.172Z,23.80
2018-06-23T01:52:40.699Z,23.07
2018-06-23T01:55:09.500Z,22.60
2018-06-23T01:57:38.135Z,21.10
2018-06-23T02:00:06.716Z,28.70
2018-06-23T02:02:35.448Z,24.83
2018-06-23T02:05:04.384Z,20.03
2018-06-23T02:07:33.199Z,22.63
2018-06-23T02:10:01.944Z,21.40
2018-06-23T02:12:30.811Z,24.10
2018-06-23T02:15:04.869Z,24.87
2018-06-23T02:17:38.924Z,26.70
2018-06-23T02:20:13.124Z,23.50
2018-06-23T02:22:47.096Z,25.73
2018-06-23T02:25:28.384Z,28.33
2018-06-23T02:45:36.472Z,21.13
2018-06-23T02:48:05.379Z,20.67
2018-06-23T02:50:34.293Z,30.23
2018-06-23T02:53:03.177Z,18.43
2018-06-23T02:55:32.080Z,24.73
2018-06-23T02:58:16.828Z,22.50
2018-06-23T03:00:52.155Z,26.70
2018-06-23T03:03:21.126Z,23.77
2018-06-23T03:05:50.110Z,16.27
2018-06-23T03:08:19.087Z,18.20
2018-06-23T03:10:48.032Z,18.03
2018-06-23T03:13:16.943Z,28.27
2018-06-23T03:19:08.354Z,16.50
2018-06-23T03:21:37.272Z,22.33
2018-06-23T03:24:06.212Z,25.57
2018-06-23T03:26:35.105Z,26.57
2018-06-23T03:29:04.239Z,25.57
2018-06-23T03:31:33.136Z,17.23
2018-06-23T03:34:02.022Z,25.03
2018-06-23T03:39:15.124Z,18.63
2018-06-23T03:41:44.000Z,22.83
2018-06-23T03:44:12.970Z,18.97
2018-06-23T03:46:42.323Z,23.07
2018-06-23T03:49:11.209Z,19.10
2018-06-23T03:52:02.288Z,25.33
2018-06-23T04:00:24.920Z,18.93
2018-06-23T04:02:53.670Z,22.57
2018-06-23T04:05:22.531Z,28.43
2018-06-23T04:07:51.529Z,21.20
2018-06-23T04:10:20.393Z,17.00
2018-06-23T04:12:49.052Z,20.80
2018-06-23T04:15:17.576Z,15.70
2018-06-23T04:17:46.334Z,29.23
2018-06-23T04:20:14.981Z,21.03
2018-06-23T04:22:43.727Z,19.43
2018-06-23T04:25:12.373Z,21.93
2018-06-23T04:27:40.900Z,23.30
2018-06-23T04:30:09.918Z,23.80
2018-06-23T04:38:45.357Z,27.83
2018-06-23T04:41:14.244Z,22.37
2018-06-23T04:43:43.124Z,20.60
2018-06-23T04:46:12.012Z,20.53
2018-06-23T05:00:50.673Z,17.23
2018-06-23T05:09:21.514Z,22.63
2018-06-23T05:11:50.063Z,17.73
2018-06-23T05:14:18.823Z,16.13
2018-06-23T05:16:47.744Z,18.47
2018-06-23T05:19:16.481Z,31.30
2018-06-23T05:42:34.356Z,24.23
2018-06-23T06:08:33.576Z,18.87
2018-06-23T06:11:12.433Z,19.03
2018-06-23T06:19:47.588Z,21.37
2018-06-23T06:22:16.565Z,15.70
2018-06-23T06:27:48.594Z,17.07
2018-06-23T06:45:17.710Z,23.07
2018-06-23T06:47:51.644Z,16.03
2018-06-23T06:50:20.519Z,22.30
2018-06-23T06:55:56.301Z,22.37
2018-06-23T06:58:25.160Z,18.67
2018-06-23T07:00:54.094Z,20.20
2018-06-23T07:03:23.006Z,16.87
2018-06-23T07:05:51.880Z,18.60
2018-06-23T07:08:20.592Z,17.63
2018-06-23T07:10:49.337Z,13.60
2018-06-23T07:13:18.216Z,14.63
2018-06-23T07:15:47.907Z,17.77
2018-06-23T07:27:27.307Z,21.43
2018-06-23T07:29:56.212Z,15.80
2018-06-23T07:32:25.077Z,15.10
2018-06-23T07:34:54.207Z,17.50
2018-06-23T07:37:24.023Z,15.30
2018-06-23T07:39:54.196Z,10.80
2018-06-23T07:42:23.911Z,13.47
2018-06-23T07:44:55.173Z,14.40
2018-06-23T07:47:24.967Z,14.60
2018-06-23T07:49:56.086Z,14.60
2018-06-23T07:52:26.486Z,14.00
2018-06-23T07:54:56.106Z,14.50
2018-06-23T07:57:26.059Z,14.73
2018-06-23T07:59:57.013Z,13.97
2018-06-23T08:02:27.358Z,19.13
2018-06-23T08:04:58.277Z,11.37
2018-06-23T08:07:28.886Z,19.60
2018-06-23T08:09:59.222Z,17.07
2018-06-23T08:12:29.034Z,14.70
2018-06-23T08:14:58.398Z,15.83
2018-06-23T08:17:29.147Z,13.07
2018-06-23T08:19:58.490Z,11.90
2018-06-23T08:22:28.342Z,14.67
2018-06-23T08:24:59.535Z,14.77
2018-06-23T08:27:30.099Z,15.97
2018-06-23T08:29:59.663Z,10.43
2018-06-23T08:32:30.186Z,13.20
2018-06-23T08:34:59.619Z,12.13
2018-06-23T08:37:30.766Z,12.43
2018-06-23T08:40:00.229Z,10.20
2018-06-23T08:42:30.051Z,11.77
2018-06-23T08:45:00.387Z,14.13
2018-06-23T08:47:29.730Z,9.00
2018-06-23T08:50:01.098Z,12.60
2018-06-23T08:52:30.642Z,11.87
2018-06-23T08:55:00.450Z,13.63
2018-06-23T08:57:30.615Z,12.53
2018-06-23T09:00:00.692Z,14.70
2018-06-23T09:02:31.062Z,15.23
2018-06-23T09:05:00.695Z,17.63
2018-06-23T09:07:31.054Z,15.90
2018-06-23T09:10:01.715Z,14.63
2018-06-23T09:12:32.070Z,10.77
2018-06-23T09:15:02.410Z,10.33
2018-06-23T09:17:33.103Z,9.73
2018-06-23T09:20:03.250Z,12.10
2018-06-23T09:22:32.677Z,12.63
2018-06-23T09:25:03.042Z,16.07
2018-06-23T09:27:33.999Z,10.60
2018-06-23T09:30:03.630Z,11.70
2018-06-23T09:32:34.122Z,16.07
2018-06-23T09:35:03.954Z,16.00
2018-06-23T09:37:34.194Z,16.57
2018-06-23T09:40:03.673Z,11.97
2018-06-23T09:42:34.205Z,12.50
2018-06-23T09:45:05.294Z,12.00
2018-06-23T09:47:35.732Z,8.93
2018-06-23T09:50:06.047Z,11.00
2018-06-23T09:52:36.118Z,14.73
2018-06-23T09:55:07.077Z,11.40
2018-06-23T09:57:36.789Z,9.07
2018-06-23T10:00:07.534Z,14.77
2018-06-23T10:02:37.250Z,8.73
2018-06-23T10:05:06.690Z,10.63
2018-06-23T10:07:37.319Z,10.63
2018-06-23T10:10:07.779Z,10.20
2018-06-23T10:12:37.318Z,6.43
2018-06-23T10:15:08.390Z,10.07
2018-06-23T10:17:38.738Z,11.80
2018-06-23T10:20:08.278Z,11.30
2018-06-23T10:22:38.025Z,7.13
2018-06-23T10:25:08.070Z,7.50
2018-06-23T10:27:37.626Z,11.63
2018-06-23T10:30:08.711Z,9.97
2018-06-23T10:32:40.224Z,13.13
2018-06-23T10:35:11.271Z,8.47
2018-06-23T10:37:41.959Z,9.83
2018-06-23T10:40:11.978Z,6.47
2018-06-23T10:42:42.878Z,9.20
2018-06-23T10:45:12.962Z,7.70
2018-06-23T10:47:42.947Z,9.90
2018-06-23T10:50:13.487Z,8.57
2018-06-23T10:52:44.134Z,7.50
2018-06-23T10:55:13.638Z,6.83
2018-06-23T10:57:44.316Z,8.00
2018-06-23T11:00:14.823Z,7.57
2018-06-23T11:02:44.910Z,8.43
2018-06-23T11:05:13.934Z,9.37
2018-06-23T11:07:43.022Z,6.00
2018-06-23T11:10:12.672Z,9.53
2018-06-23T11:12:43.577Z,8.43
2018-06-23T11:15:14.218Z,10.57
2018-06-23T11:17:43.594Z,8.33
2018-06-23T11:20:14.542Z,8.83
2018-06-23T11:22:45.522Z,11.00
2018-06-23T11:25:16.074Z,8.93
2018-06-23T11:27:46.782Z,9.33
2018-06-23T11:30:16.302Z,5.80
2018-06-23T11:32:45.437Z,7.43
2018-06-23T11:35:15.622Z,7.77
2018-06-23T11:37:45.670Z,9.10
2018-06-23T11:40:15.243Z,6.70
2018-06-23T11:42:45.486Z,5.60
2018-06-23T11:45:15.423Z,10.47
2018-06-23T11:47:46.870Z,8.13
2018-06-23T11:50:16.994Z,13.90
2018-06-23T11:52:47.881Z,7.40
2018-06-23T11:55:17.453Z,9.77
2018-06-23T11:57:49.154Z,8.73
2018-06-23T12:00:18.557Z,11.87
2018-06-23T12:02:48.378Z,9.27
2018-06-23T12:05:18.822Z,8.57
2018-06-23T12:07:50.107Z,8.97
2018-06-23T12:10:20.275Z,9.37
2018-06-23T12:12:51.177Z,7.77
2018-06-23T12:15:21.855Z,7.97
2018-06-23T12:17:52.062Z,8.23
2018-06-23T12:20:21.934Z,8.30
2018-06-23T12:22:52.186Z,7.50
2018-06-23T12:25:22.058Z,8.77
2018-06-23T12:27:51.852Z,12.33
2018-06-23T12:30:22.585Z,7.97
2018-06-23T12:32:52.419Z,10.23
2018-06-23T12:35:22.359Z,9.67
2018-06-23T12:37:53.159Z,11.07
2018-06-23T12:40:23.065Z,11.27
2018-06-23T12:42:53.319Z,10.33
2018-06-23T12:45:22.966Z,11.07
2018-06-23T12:47:53.160Z,11.53
2018-06-23T12:50:23.433Z,9.33
2018-06-23T12:52:53.642Z,8.30
2018-06-23T12:55:23.343Z,7.40
2018-06-23T12:57:53.510Z,11.50
2018-06-23T13:00:24.722Z,8.87
2018-06-23T13:02:54.923Z,12.20
2018-06-23T13:05:24.651Z,10.73
2018-06-23T13:07:55.891Z,10.53
2018-06-23T13:10:24.934Z,11.27
2018-06-23T13:12:55.241Z,10.97
2018-06-23T13:15:26.302Z,8.13
2018-06-23T13:17:56.883Z,9.63
2018-06-23T13:20:27.381Z,9.33
2018-06-23T13:22:57.551Z,9.27
2018-06-23T13:25:27.531Z,7.10
2018-06-23T13:27:57.230Z,12.00
2018-06-23T13:30:27.164Z,9.43
2018-06-23T13:32:57.619Z,7.53
2018-06-23T13:35:27.469Z,9.40
2018-06-23T13:37:57.352Z,10.20
2018-06-23T13:40:27.722Z,5.57
2018-06-23T13:42:57.850Z,6.10
2018-06-23T13:45:28.125Z,7.67
2018-06-23T13:47:57.811Z,6.67
2018-06-23T13:50:27.178Z,5.03
2018-06-23T13:52:57.079Z,6.97
2018-06-23T13:55:26.270Z,6.53
2018-06-23T13:57:56.238Z,6.63
2018-06-23T14:00:27.809Z,8.43
2018-06-23T14:02:57.290Z,6.57
2018-06-23T14:05:26.776Z,7.23
2018-06-23T14:07:57.118Z,7.53
2018-06-23T14:10:26.440Z,7.73
2018-06-23T14:12:56.079Z,10.00
2018-06-23T14:15:27.055Z,7.00
2018-06-23T14:17:57.351Z,6.23
2018-06-23T14:20:27.931Z,7.80
2018-06-23T14:22:57.734Z,7.73
2018-06-23T14:25:27.079Z,8.53
2018-06-23T14:27:56.632Z,5.83
2018-06-23T14:30:26.302Z,7.47
2018-06-23T14:32:55.667Z,6.80
2018-06-23T14:35:24.975Z,6.90
2018-06-23T14:37:54.354Z,4.33
2018-06-23T14:40:24.177Z,6.97
2018-06-23T14:42:54.262Z,5.20
2018-06-23T14:45:25.125Z,5.13
2018-06-23T14:47:55.193Z,7.57
2018-06-23T14:50:24.554Z,6.20
2018-06-23T14:52:54.990Z,8.20
2018-06-23T14:55:25.043Z,4.07
2018-06-23T14:57:54.938Z,8.47
2018-06-23T15:00:25.018Z,5.27
2018-06-23T15:02:54.662Z,5.83
2018-06-23T15:05:25.060Z,7.23
2018-06-23T15:07:56.240Z,8.00
2018-06-23T15:10:37.163Z,6.67
2018-06-23T15:13:14.603Z,7.33
2018-06-23T15:15:45.408Z,11.37
2018-06-23T15:18:15.829Z,8.67
2018-06-23T15:20:46.952Z,5.47
2018-06-23T15:23:17.210Z,4.43
2018-06-23T15:25:47.975Z,7.03
2018-06-23T15:28:18.599Z,6.17
2018-06-23T15:30:48.307Z,6.50
2018-06-23T15:33:19.926Z,7.47
2018-06-23T15:35:49.602Z,5.47
2018-06-23T15:38:19.283Z,9.13
2018-06-23T15:40:48.604Z,8.83
2018-06-23T15:43:19.750Z,7.67
2018-06-23T15:45:49.374Z,7.07
2018-06-23T15:48:20.390Z,7.23
2018-06-23T15:50:50.475Z,7.03
2018-06-23T15:53:20.495Z,6.63
2018-06-23T15:55:50.027Z,5.00
2018-06-23T15:58:20.273Z,5.37
2018-06-23T16:00:50.065Z,7.60
2018-06-23T16:03:19.578Z,8.00
2018-06-23T16:05:49.366Z,6.90
2018-06-23T16:08:19.128Z,7.60
2018-06-23T16:10:49.326Z,8.03
2018-06-23T16:13:20.078Z,4.67
2018-06-23T16:15:49.546Z,5.63
2018-06-23T16:18:20.014Z,6.53
2018-06-23T16:20:50.005Z,5.97
2018-06-23T16:23:20.335Z,5.47
2018-06-23T16:25:50.638Z,5.77
2018-06-23T16:28:20.567Z,7.43
2018-06-23T16:30:50.434Z,5.57
2018-06-23T16:33:20.487Z,6.47
2018-06-23T16:35:50.334Z,6.90
2018-06-23T16:38:20.067Z,6.03
2018-06-23T16:40:50.194Z,7.47
2018-06-23T16:43:20.656Z,6.97
2018-06-23T16:45:51.202Z,5.90
2018-06-23T16:48:22.411Z,4.80
2018-06-23T16:50:52.721Z,6.13
2018-06-23T16:53:22.622Z,8.00
2018-06-23T16:55:52.350Z,6.17
2018-06-23T16:58:21.826Z,7.10
2018-06-23T17:00:50.880Z,8.13
2018-06-23T17:03:20.342Z,7.33
2018-06-23T17:05:51.519Z,5.13
2018-06-23T17:08:23.511Z,5.87
2018-06-23T17:10:53.711Z,7.70
2018-06-23T17:13:23.310Z,5.00
2018-06-23T17:15:53.247Z,6.70
2018-06-23T17:18:23.352Z,6.03
2018-06-23T17:20:54.381Z,8.00
2018-06-23T17:23:24.796Z,9.20
2018-06-23T17:25:53.965Z,6.00
2018-06-23T17:28:24.102Z,4.93
2018-06-23T17:30:53.859Z,7.20
2018-06-23T17:33:25.229Z,10.30
2018-06-23T17:35:54.610Z,6.87
2018-06-23T17:38:25.199Z,5.77
2018-06-23T17:40:55.313Z,7.40
2018-06-23T17:43:26.283Z,7.10
2018-06-23T17:45:56.278Z,8.50
2018-06-23T17:48:26.019Z,5.97
2018-06-23T17:50:55.754Z,4.23
2018-06-23T17:53:27.598Z,4.27
2018-06-23T17:55:57.958Z,6.03
2018-06-23T17:58:28.459Z,5.53
2018-06-23T18:00:59.336Z,5.23
2018-06-23T18:03:29.921Z,6.67
2018-06-23T18:06:01.177Z,7.13
2018-06-23T18:08:32.171Z,5.17
2018-06-23T18:11:01.921Z,6.43
2018-06-23T18:13:32.773Z,8.50
2018-06-23T18:16:02.482Z,5.37
2018-06-23T18:18:32.071Z,4.80
2018-06-23T18:21:02.419Z,5.40
2018-06-23T18:23:34.218Z,5.67
2018-06-23T18:26:04.367Z,5.13
2018-06-23T18:28:34.187Z,5.73
2018-06-23T18:31:04.990Z,7.50
2018-06-23T18:33:35.382Z,10.10
2018-06-23T18:36:05.215Z,5.50
2018-06-23T18:38:34.655Z,4.33
2018-06-23T18:41:04.206Z,9.40
2018-06-23T18:43:33.402Z,7.07
2018-06-23T18:46:02.462Z,9.80
2018-06-23T18:48:32.982Z,7.57
2018-06-23T18:51:02.079Z,8.03
2018-06-23T18:53:32.191Z,6.30
2018-06-23T18:56:02.655Z,8.30
2018-06-23T18:58:34.146Z,6.60
2018-06-23T19:01:04.307Z,6.60
2018-06-23T19:03:34.010Z,6.03
2018-06-23T19:06:05.030Z,6.53
2018-06-23T19:08:35.772Z,6.77
2018-06-23T19:11:06.786Z,8.20
2018-06-23T19:13:36.367Z,5.77
2018-06-23T19:16:06.263Z,5.67
2018-06-23T19:18:36.134Z,10.23
2018-06-23T19:21:05.527Z,5.13
2018-06-23T19:23:36.060Z,8.33
2018-06-23T19:26:06.309Z,6.03
2018-06-23T19:28:36.942Z,4.67
2018-06-23T19:31:08.611Z,8.20
2018-06-23T19:33:38.495Z,7.07
2018-06-23T19:36:08.090Z,8.33
2018-06-23T19:38:37.814Z,7.43
2018-06-23T19:41:18.666Z,7.47
2018-06-23T19:43:49.394Z,6.90
2018-06-23T19:46:18.750Z,6.37
2018-06-23T19:48:47.902Z,9.27
2018-06-23T19:51:17.840Z,9.70
2018-06-23T19:53:48.813Z,6.37
2018-06-23T19:56:19.819Z,8.97
2018-06-23T19:58:50.025Z,8.80
2018-06-23T20:01:19.381Z,8.40
2018-06-23T20:03:48.442Z,7.77
2018-06-23T20:06:19.371Z,10.63
2018-06-23T20:08:48.718Z,9.97
2018-06-23T20:11:19.154Z,10.20
2018-06-23T20:13:48.414Z,7.23
2018-06-23T20:16:17.439Z,7.33
2018-06-23T20:18:47.926Z,8.17
2018-06-23T20:21:18.743Z,7.20
2018-06-23T20:23:49.126Z,6.93
2018-06-23T20:26:18.578Z,11.17
2018-06-23T20:28:49.075Z,8.30
2018-06-23T20:31:19.166Z,8.63
2018-06-23T20:33:48.986Z,9.43
2018-06-23T20:36:19.858Z,5.03
2018-06-23T20:38:49.719Z,8.97
2018-06-23T20:41:19.588Z,9.53
2018-06-23T20:43:51.159Z,5.70
2018-06-23T20:46:21.151Z,8.50
2018-06-23T20:48:51.543Z,7.30
2018-06-23T20:51:20.814Z,9.23
2018-06-23T20:53:50.920Z,9.27
2018-06-23T20:56:20.474Z,10.03
2018-06-23T20:58:51.373Z,10.70
2018-06-23T21:01:21.619Z,7.53
2018-06-23T21:03:51.878Z,7.53
2018-06-23T21:06:21.203Z,11.87
2018-06-23T21:08:51.387Z,9.07
2018-06-23T21:11:21.254Z,8.43
2018-06-23T21:13:50.490Z,8.23
2018-06-23T21:16:20.843Z,8.13
2018-06-23T21:18:51.195Z,8.17
2018-06-23T21:21:22.111Z,8.33
2018-06-23T21:23:51.542Z,8.17
2018-06-23T21:26:23.189Z,9.00
2018-06-23T21:28:53.926Z,7.37
2018-06-23T21:31:24.266Z,10.47
2018-06-23T21:33:54.550Z,10.53
2018-06-23T21:36:24.207Z,11.70
2018-06-23T21:38:54.674Z,15.57
2018-06-23T21:41:24.446Z,8.70
2018-06-23T21:43:54.948Z,10.17
2018-06-23T21:46:25.831Z,11.63
2018-06-23T21:48:56.791Z,8.97
2018-06-23T21:51:27.251Z,9.53
2018-06-23T21:53:56.998Z,10.23
2018-06-23T21:56:26.899Z,8.00
2018-06-23T21:58:55.974Z,10.13
2018-06-23T22:01:26.817Z,9.07
2018-06-23T22:03:56.614Z,9.33
2018-06-23T22:06:26.710Z,7.93
2018-06-23T22:08:58.038Z,10.37
2018-06-23T22:11:27.646Z,8.67
2018-06-23T22:13:57.887Z,8.33
2018-06-23T22:16:27.426Z,9.47
2018-06-23T22:18:57.759Z,7.53
2018-06-23T22:21:27.934Z,9.27
2018-06-23T22:23:57.750Z,7.70
2018-06-23T22:26:27.959Z,9.37
2018-06-23T22:28:57.697Z,11.00
2018-06-23T22:31:27.963Z,11.70
2018-06-23T22:33:58.668Z,10.07
2018-06-23T22:36:28.947Z,6.90
2018-06-23T22:38:59.069Z,6.97
2018-06-23T22:41:29.284Z,9.77
2018-06-23T22:43:59.423Z,12.20
2018-06-23T22:46:30.807Z,7.83
2018-06-23T22:49:02.390Z,8.80
2018-06-23T22:51:32.682Z,7.57
2018-06-23T22:54:03.630Z,8.53
2018-06-23T22:56:33.554Z,8.43
2018-06-23T22:59:03.695Z,8.93
2018-06-23T23:01:34.187Z,7.83
2018-06-23T23:04:04.395Z,7.87
2018-06-23T23:06:33.249Z,8.13
2018-06-23T23:09:03.086Z,6.43
2018-06-23T23:11:33.771Z,5.50
2018-06-23T23:14:03.463Z,10.07
2018-06-23T23:16:33.431Z,10.73
2018-06-23T23:19:03.386Z,7.53
2018-06-23T23:21:33.326Z,8.60
2018-06-23T23:24:03.179Z,5.37
2018-06-23T23:26:32.815Z,6.80
2018-06-23T23:29:02.531Z,6.73
2018-06-23T23:31:31.946Z,10.87
2018-06-23T23:34:01.875Z,8.80
2018-06-23T23:36:31.302Z,6.10
2018-06-23T23:39:01.358Z,8.20
2018-06-23T23:41:31.225Z,7.90
2018-06-23T23:44:00.739Z,7.50
2018-06-23T23:46:30.922Z,7.97
2018-06-23T23:49:00.474Z,9.27
2018-06-23T23:51:29.964Z,6.10
2018-06-23T23:54:00.246Z,8.87
2018-06-23T23:56:30.202Z,9.13
2018-06-23T23:59:00.314Z,7.83
